Архив погоды в Муслюмово

Метеограмма Муслюмово
Среда, 22 Мая
Время местн. Темп Ветер Видим Явления Облачность нижн/средн/верх Атм. давл. Влжн Точка росы ВНГО R Сост. почвы Tg s
Напр Скр Прв ур.ст ур.м изм
21:00 +12.3° З 4 - 20 км - преимущественно облачно 753 760 +0.4 65% +5.9° 1 км - - - -
18:00 +17.2° З 5 - 20 км - преимущественно облачно 752 759 -0.7 33% +0.6° 1 км 0 - - -
15:00 +19.7° З 4 - 20 км - преимущественно облачно 753 760 -1.3 21% -3.1° 1 км - - - -
12:00 +17.7° С,С-З 2 - 20 км - преимущественно облачно 754 761 -1.1 22% -4.3° 1 км - - - -
09:00 +15.9° З 2 - 20 км - облачно с прояснениями 755 762 -0.6 26% -3.6° 1 км - - - -
06:00 +7.2° В,Ю-В 1 - 20 км - ясно 756 763 -0.1 58% -0.4° более 2.5 км 0 Замерзшая - -
03:00 +0.3° В 2 - 20 км - переменная облачность 756 763 +0.2 88% -1.5° более 2.5 км - - - -
00:00 +3.4° В,Ю-В 1 - 20 км - переменная облачность 756 763 +0.2 77% -0.2° 1 км - - - -
Вторник, 21 Мая
Время местн. Темп Ветер Видим Явления Облачность нижн/средн/верх Атм. давл. Влжн Точка росы ВНГО R Сост. почвы Tg s
Напр Скр Прв ур.ст ур.м изм
21:00 +8.2° З,С-З 1 - 20 км - переменная облачность 756 763 +0.3 57% +0.1° 1 км - - - -
18:00 +14.4° С-З 4 - 20 км - облачно с прояснениями 755 762 -0.1 27% -4.2° 1 км 0 - - -
15:00 +14.9° З,С-З 5 - 20 км - переменная облачность 755 762 -0.3 26% -4.5° 1 км - - - -
12:00 +13.5° С-З 5 12 20 км - облачно с прояснениями 756 763 -0.2 28% -4.5° 1 км - - - -
09:00 +12° С,С-З 6 10 20 км - облачно с прояснениями 756 763 +0.2 31% -4.5° 1 км - - - -
06:00 +6.7° С-З 5 - 20 км - ясно 756 763 +0.7 67% +1° более 2.5 км 0 Влажная (без луж) - -
03:00 +3.6° С-З 3 - 20 км - преимущественно облачно 755 762 +0.2 81% +0.7° 1 км - - - -
00:00 +3.7° С-З 4 - 20 км - переменная облачность 755 762 +0.2 78% +0.3° 1 км - - - -
Понедельник, 20 Мая
Время местн. Темп Ветер Видим Явления Облачность нижн/средн/верх Атм. давл. Влжн Точка росы ВНГО R Сост. почвы Tg s
Напр Скр Прв ур.ст ур.м изм
21:00 +5.2° С-З 3 - 20 км - преимущественно облачно 754 762 +0.6 74% +1° 1 км - - - -
18:00 +9.9° З,С-З 5 11 20 км - преимущественно облачно 754 761 -0.1 50% +0.1° 600 м 1 - - -
15:00 +10.7° С-З 6 - 20 км ливневый дождь переменная облачность 754 761 -0.1 53% +1.6° 1 км - - - -
12:00 +8.2° С-З 6 - 20 км - преимущественно облачно 754 761 +0.1 59% +0.6° 1 км - - - -
09:00 +5.4° З,С-З 6 - 20 км - преимущественно облачно 754 761 +0.2 72% +0.7° 600 м - - - -
06:00 +3.8° З,С-З 4 - 20 км - преимущественно облачно 754 761 +0.9 79% +0.5° 600 м 0.3 Влажная (без луж) - -
03:00 +2.3° С-З 5 - 20 км - переменная облачность 753 760 +0.6 81% -0.6° 600 м - - - -
00:00 +4.5° С-З 6 - 20 км - преимущественно облачно 752 760 +0.2 76% +0.6° 600 м - - - -
Воскресенье, 19 Мая
Время местн. Темп Ветер Видим Явления Облачность нижн/средн/верх Атм. давл. Влжн Точка росы ВНГО R Сост. почвы Tg s
Напр Скр Прв ур.ст ур.м изм
21:00 +3.1° С-З 2 - 20 км небо без изменений {ливневые осадки} облачно с прояснениями 752 759 +0.9 82% +0.4° 600 м - - - -
18:00 +4.9° С-З 3 - 10 км слабый ливневый дождь облачно 751 758 +0.6 80% +1.7° 600 м 0.8 - - -